createdAt,value
2017-10-14T00:00:29.153Z,101247.16
2017-10-14T00:02:58.355Z,101255.79
2017-10-14T00:05:27.616Z,101249.89
2017-10-14T00:07:57.620Z,101250.99
2017-10-14T00:10:27.144Z,101250.68
2017-10-14T00:12:58.027Z,101249.61
2017-10-14T00:15:27.260Z,101245.43
2017-10-14T00:17:56.491Z,101240.56
2017-10-14T00:20:26.472Z,101247.02
2017-10-14T00:22:55.787Z,101242.59
2017-10-14T00:25:25.035Z,101240.13
2017-10-14T00:27:54.236Z,101247.20
2017-10-14T00:30:23.438Z,101242.52
2017-10-14T00:32:52.674Z,101243.31
2017-10-14T00:35:21.876Z,101237.14
2017-10-14T00:37:51.108Z,101236.52
2017-10-14T00:40:20.316Z,101239.45
2017-10-14T00:42:49.558Z,101237.77
2017-10-14T00:45:18.780Z,101244.41
2017-10-14T00:47:48.120Z,101249.55
2017-10-14T00:50:17.364Z,101244.65
2017-10-14T00:52:46.579Z,101245.50
2017-10-14T00:55:16.556Z,101250.28
2017-10-14T00:57:46.571Z,101252.20
2017-10-14T01:00:15.819Z,101241.33
2017-10-14T01:02:45.059Z,101252.31
2017-10-14T01:05:14.275Z,101251.12
2017-10-14T01:07:43.492Z,101247.45
2017-10-14T01:10:12.758Z,101245.80
2017-10-14T01:12:41.960Z,101246.14
2017-10-14T01:15:11.176Z,101246.77
2017-10-14T01:17:40.403Z,101245.28
2017-10-14T01:20:10.364Z,101244.30
2017-10-14T01:22:39.592Z,101237.27
2017-10-14T01:25:08.824Z,101235.78
2017-10-14T01:27:38.134Z,101234.34
2017-10-14T01:30:07.380Z,101229.11
2017-10-14T01:32:36.633Z,101230.52
2017-10-14T01:35:05.843Z,101225.93
2017-10-14T01:37:35.065Z,101227.30
2017-10-14T01:40:04.273Z,101232.63
2017-10-14T01:42:33.495Z,101226.84
2017-10-14T01:45:03.632Z,101230.47
2017-10-14T01:47:32.833Z,101227.14
2017-10-14T01:50:02.191Z,101220.77
2017-10-14T01:52:33.031Z,101217.52
2017-10-14T01:55:03.130Z,101218.31
2017-10-14T01:57:32.432Z,101218.35
2017-10-14T02:00:01.679Z,101214.62
2017-10-14T02:02:31.053Z,101212.53
2017-10-14T02:05:01.053Z,101212.44
2017-10-14T02:07:30.288Z,101210.73
2017-10-14T02:10:00.469Z,101212.11
2017-10-14T02:12:29.730Z,101210.22
2017-10-14T02:14:58.936Z,101217.77
2017-10-14T02:17:28.187Z,101220.69
2017-10-14T02:19:58.165Z,101221.80
2017-10-14T02:22:27.465Z,101223.35
2017-10-14T02:24:56.683Z,101220.61
2017-10-14T02:27:26.703Z,101218.20
2017-10-14T02:29:55.920Z,101217.63
2017-10-14T02:32:25.908Z,101219.72
2017-10-14T02:34:55.111Z,101225.92
2017-10-14T02:37:25.118Z,101226.89
2017-10-14T02:39:54.340Z,101223.75
2017-10-14T02:42:24.335Z,101225.66
2017-10-14T02:44:53.543Z,101220.00
2017-10-14T02:47:22.769Z,101221.48
2017-10-14T02:49:52.108Z,101224.64
2017-10-14T02:52:21.303Z,101219.55
2017-10-14T02:54:50.535Z,101223.09
2017-10-14T02:57:20.599Z,101220.52
2017-10-14T02:59:49.908Z,101222.44
2017-10-14T03:02:19.133Z,101229.08
2017-10-14T03:04:48.387Z,101231.45
2017-10-14T03:07:18.355Z,101238.38
2017-10-14T03:09:47.580Z,101230.42
2017-10-14T03:12:17.721Z,101227.66
2017-10-14T03:14:46.973Z,101227.91
2017-10-14T03:17:17.690Z,101232.77
2017-10-14T03:19:46.937Z,101235.57
2017-10-14T03:22:16.159Z,101234.77
2017-10-14T03:24:45.372Z,101236.83
2017-10-14T03:27:14.653Z,101235.58
2017-10-14T03:29:43.930Z,101233.77
2017-10-14T03:32:13.155Z,101234.45
2017-10-14T03:34:42.359Z,101230.28
2017-10-14T03:37:11.671Z,101231.60
2017-10-14T03:39:40.976Z,101234.63
2017-10-14T03:42:10.396Z,101235.62
2017-10-14T03:44:39.609Z,101230.48
2017-10-14T03:47:09.611Z,101231.80
2017-10-14T03:49:38.997Z,101234.80
2017-10-14T03:52:08.236Z,101231.02
2017-10-14T03:54:38.376Z,101236.94
2017-10-14T03:57:07.608Z,101236.67
2017-10-14T03:59:36.892Z,101235.81
2017-10-14T04:02:06.104Z,101240.67
2017-10-14T04:04:35.314Z,101238.09
2017-10-14T04:07:04.560Z,101243.09
2017-10-14T04:09:33.864Z,101250.41
2017-10-14T04:12:03.092Z,101251.72
2017-10-14T04:14:32.341Z,101247.79
2017-10-14T04:17:01.555Z,101252.70
2017-10-14T04:19:30.780Z,101242.65
2017-10-14T04:21:59.984Z,101262.24
2017-10-14T04:24:29.236Z,101251.30
2017-10-14T04:26:59.203Z,101258.38
2017-10-14T04:29:28.455Z,101256.27
2017-10-14T04:31:57.682Z,101265.63
2017-10-14T04:34:26.945Z,101266.14
2017-10-14T04:36:56.940Z,101261.57
2017-10-14T04:39:26.904Z,101266.80
2017-10-14T04:41:56.143Z,101263.13
2017-10-14T04:44:25.403Z,101261.86
2017-10-14T04:46:54.699Z,101257.66
2017-10-14T04:49:23.900Z,101259.27
2017-10-14T04:51:53.128Z,101257.42
2017-10-14T04:54:22.409Z,101258.80
2017-10-14T04:56:51.639Z,101252.45
2017-10-14T04:59:20.904Z,101256.23
2017-10-14T05:01:50.215Z,101258.27
2017-10-14T05:04:19.420Z,101255.94
2017-10-14T05:06:48.685Z,101259.16
2017-10-14T05:09:17.909Z,101255.20
2017-10-14T05:11:47.250Z,101253.27
2017-10-14T05:14:17.255Z,101251.56
2017-10-14T05:16:47.228Z,101255.15
2017-10-14T05:19:16.491Z,101247.27
2017-10-14T05:21:45.703Z,101255.16
2017-10-14T05:24:15.748Z,101254.30
2017-10-14T05:26:44.953Z,101256.06
2017-10-14T05:29:14.191Z,101255.11
2017-10-14T05:31:44.176Z,101253.03
2017-10-14T05:34:13.419Z,101252.47
2017-10-14T05:36:42.632Z,101258.19
2017-10-14T05:39:11.855Z,101258.53
2017-10-14T05:41:41.094Z,101256.20
2017-10-14T05:44:11.074Z,101263.78
2017-10-14T05:46:40.315Z,101263.71
2017-10-14T05:49:09.665Z,101263.84
2017-10-14T05:51:38.892Z,101264.82
2017-10-14T05:54:08.887Z,101259.03
2017-10-14T05:56:38.247Z,101261.77
2017-10-14T05:59:07.481Z,101262.65
2017-10-14T06:01:36.714Z,101266.23
2017-10-14T06:04:05.919Z,101264.13
2017-10-14T06:06:35.961Z,101262.69
2017-10-14T06:09:05.264Z,101270.58
2017-10-14T06:11:34.479Z,101272.58
2017-10-14T06:14:03.721Z,101269.38
2017-10-14T06:16:33.742Z,101267.09
2017-10-14T06:19:03.764Z,101273.42
2017-10-14T06:21:33.756Z,101273.72
2017-10-14T06:24:03.093Z,101277.66
2017-10-14T06:26:32.309Z,101277.48
2017-10-14T06:29:01.535Z,101277.02
2017-10-14T06:31:30.848Z,101284.67
2017-10-14T06:34:00.084Z,101285.13
2017-10-14T06:36:29.306Z,101285.94
2017-10-14T06:38:58.697Z,101292.52
2017-10-14T06:41:28.777Z,101292.11
2017-10-14T06:43:57.997Z,101295.83
2017-10-14T06:46:27.251Z,101299.76
2017-10-14T06:48:56.504Z,101299.75
2017-10-14T06:51:25.827Z,101300.72
2017-10-14T06:53:55.036Z,101303.98
2017-10-14T06:56:24.271Z,101306.78
2017-10-14T06:58:54.293Z,101304.37
2017-10-14T07:01:24.448Z,101309.97
2017-10-14T07:03:53.660Z,101316.98
2017-10-14T07:06:22.930Z,101313.27
2017-10-14T07:08:52.160Z,101307.79
2017-10-14T07:11:21.380Z,101316.03
2017-10-14T07:13:50.768Z,101316.59
2017-10-14T07:16:20.773Z,101325.27
2017-10-14T07:18:50.023Z,101325.14
2017-10-14T07:21:20.156Z,101338.52
2017-10-14T07:23:50.171Z,101335.27
2017-10-14T07:26:19.374Z,101340.52
2017-10-14T07:28:48.585Z,101338.51
2017-10-14T07:31:17.838Z,101336.62
2017-10-14T07:33:47.090Z,101341.02
2017-10-14T07:36:16.527Z,101337.87
2017-10-14T07:38:45.748Z,101341.85
2017-10-14T07:41:15.761Z,101343.20
2017-10-14T07:43:45.813Z,101345.89
2017-10-14T07:46:15.063Z,101353.53
2017-10-14T07:48:44.332Z,101355.09
2017-10-14T07:51:13.565Z,101348.68
2017-10-14T07:53:42.939Z,101351.77
2017-10-14T07:56:13.694Z,101353.72
2017-10-14T07:58:42.920Z,101353.12
2017-10-14T08:01:12.260Z,101353.20
2017-10-14T08:03:41.444Z,101352.83
2017-10-14T08:06:10.672Z,101353.30
2017-10-14T08:08:40.689Z,101356.66
2017-10-14T08:11:09.955Z,101353.84
2017-10-14T08:13:39.175Z,101351.63
2017-10-14T08:16:08.405Z,101358.58
2017-10-14T08:18:38.416Z,101361.61
2017-10-14T08:21:07.656Z,101360.34
2017-10-14T08:23:36.916Z,101355.77
2017-10-14T08:26:06.114Z,101355.26
2017-10-14T08:28:36.139Z,101355.68
2017-10-14T08:31:06.137Z,101354.23
2017-10-14T08:33:35.386Z,101349.42
2017-10-14T08:36:04.597Z,101352.17
2017-10-14T08:38:33.811Z,101352.41
2017-10-14T08:41:03.042Z,101342.88
2017-10-14T08:43:32.268Z,101350.98
2017-10-14T08:46:01.529Z,101351.52
2017-10-14T08:48:31.533Z,101347.55
2017-10-14T08:51:00.771Z,101350.48
2017-10-14T08:53:29.981Z,101355.16
2017-10-14T08:55:59.221Z,101352.38
2017-10-14T08:58:28.422Z,101364.67
2017-10-14T09:00:57.691Z,101361.92
2017-10-14T09:03:26.910Z,101362.33
2017-10-14T09:05:56.140Z,101360.64
2017-10-14T09:08:26.106Z,101366.66
2017-10-14T09:10:55.333Z,101367.66
2017-10-14T09:13:24.651Z,101367.90
2017-10-14T09:15:53.915Z,101375.59
2017-10-14T09:18:23.126Z,101370.14
2017-10-14T09:20:52.406Z,101369.03
2017-10-14T09:23:21.654Z,101369.08
2017-10-14T09:25:51.621Z,101381.02
2017-10-14T09:28:20.932Z,101379.09
2017-10-14T09:30:50.313Z,101373.13
2017-10-14T09:33:19.560Z,101376.45
2017-10-14T09:35:49.556Z,101376.48
2017-10-14T09:38:19.271Z,101377.09
2017-10-14T09:40:48.463Z,101375.55
2017-10-14T09:43:18.458Z,101381.19
2017-10-14T09:45:47.630Z,101390.86
2017-10-14T09:48:16.852Z,101388.77
2017-10-14T09:50:46.143Z,101387.59
2017-10-14T09:53:15.374Z,101386.69
2017-10-14T09:55:44.604Z,101389.11
2017-10-14T09:58:14.632Z,101388.81
2017-10-14T10:00:43.851Z,101383.50
2017-10-14T10:03:13.051Z,101391.77
2017-10-14T10:05:42.318Z,101382.02
2017-10-14T10:08:11.538Z,101377.72
2017-10-14T10:10:40.763Z,101378.01
2017-10-14T10:13:09.968Z,101379.37
2017-10-14T10:15:39.216Z,101377.62
2017-10-14T10:18:08.511Z,101377.22
2017-10-14T10:20:37.777Z,101380.31
2017-10-14T10:23:07.015Z,101379.47
2017-10-14T10:25:36.215Z,101374.89
2017-10-14T10:28:05.434Z,101378.50
2017-10-14T10:30:34.650Z,101375.59
2017-10-14T10:33:03.859Z,101372.90
2017-10-14T10:35:33.875Z,101366.44
2017-10-14T10:38:03.861Z,101372.17
2017-10-14T10:40:33.164Z,101366.02
2017-10-14T10:43:02.531Z,101359.80
2017-10-14T10:45:31.764Z,101364.96
2017-10-14T10:48:00.999Z,101359.63
2017-10-14T10:50:30.235Z,101357.26
2017-10-14T10:52:59.472Z,101352.17
2017-10-14T10:55:28.670Z,101342.28
2017-10-14T10:57:57.896Z,101353.10
2017-10-14T11:00:28.220Z,101343.30
2017-10-14T11:02:58.231Z,101345.37
2017-10-14T11:05:28.304Z,101341.05
2017-10-14T11:07:57.553Z,101335.98
2017-10-14T11:10:26.859Z,101335.68
2017-10-14T11:12:56.100Z,101332.23
2017-10-14T11:15:25.328Z,101332.87
2017-10-14T11:17:54.579Z,101337.88
2017-10-14T11:20:23.797Z,101330.97
2017-10-14T11:22:53.073Z,101332.09
2017-10-14T11:25:22.288Z,101330.66
2017-10-14T11:27:51.498Z,101333.35
2017-10-14T11:30:20.731Z,101327.84
2017-10-14T11:32:50.792Z,101328.57
2017-10-14T11:35:20.007Z,101324.90
2017-10-14T11:37:50.208Z,101324.19
2017-10-14T11:40:19.500Z,101321.41
2017-10-14T11:42:48.696Z,101315.06
2017-10-14T11:45:17.925Z,101316.18
2017-10-14T11:47:47.163Z,101317.09
2017-10-14T11:50:16.490Z,101314.90
2017-10-14T11:52:45.729Z,101312.11
2017-10-14T11:55:14.935Z,101307.79
2017-10-14T11:57:44.664Z,101295.28
2017-10-14T12:00:13.875Z,101291.61
2017-10-14T12:02:43.971Z,101290.48
2017-10-14T12:05:13.186Z,101284.15
2017-10-14T12:07:42.511Z,101282.63
2017-10-14T12:10:11.811Z,101283.80
2017-10-14T12:12:41.211Z,101273.75
2017-10-14T12:15:10.437Z,101278.84
2017-10-14T12:17:39.684Z,101278.56
2017-10-14T12:20:09.224Z,101281.25
2017-10-14T12:22:38.467Z,101284.50
2017-10-14T12:25:07.667Z,101286.58
2017-10-14T12:27:38.271Z,101292.03
2017-10-14T12:30:07.512Z,101281.94
2017-10-14T12:32:36.867Z,101292.59
2017-10-14T12:35:06.107Z,101295.16
2017-10-14T12:37:35.331Z,101290.78
2017-10-14T12:40:04.640Z,101294.69
2017-10-14T12:42:33.855Z,101293.67
2017-10-14T12:45:03.062Z,101286.94
2017-10-14T12:47:32.274Z,101287.25
2017-10-14T12:50:02.292Z,101277.98
2017-10-14T12:52:31.532Z,101278.87
2017-10-14T12:55:00.832Z,101280.64
2017-10-14T12:57:30.072Z,101282.03
2017-10-14T12:59:59.293Z,101286.88
2017-10-14T13:02:28.533Z,101285.53
2017-10-14T13:04:57.751Z,101290.05
2017-10-14T13:07:26.992Z,101284.85
2017-10-14T13:09:56.998Z,101283.79
2017-10-14T13:12:26.957Z,101281.03
2017-10-14T13:14:56.186Z,101278.45
2017-10-14T13:17:25.426Z,101271.27
2017-10-14T13:19:55.424Z,101274.91
2017-10-14T13:22:25.424Z,101275.03
2017-10-14T13:24:54.648Z,101275.72
2017-10-14T13:27:24.695Z,101272.81
2017-10-14T13:29:53.923Z,101274.41
2017-10-14T13:32:23.174Z,101273.67
2017-10-14T13:34:52.521Z,101270.70
2017-10-14T13:37:21.722Z,101267.73
2017-10-14T13:39:50.964Z,101260.80
2017-10-14T13:42:20.984Z,101257.83
2017-10-14T13:44:50.218Z,101262.33
2017-10-14T13:47:19.515Z,101259.56
2017-10-14T13:49:48.768Z,101257.95
2017-10-14T13:52:17.960Z,101249.59
2017-10-14T13:54:47.956Z,101249.36
2017-10-14T13:57:17.247Z,101245.66
2017-10-14T13:59:46.614Z,101247.47
2017-10-14T14:02:15.874Z,101242.70
2017-10-14T14:04:45.892Z,101243.69
2017-10-14T14:07:15.886Z,101236.92
2017-10-14T14:09:45.951Z,101240.12
2017-10-14T14:12:15.193Z,101233.98
2017-10-14T14:14:44.680Z,101229.17
2017-10-14T14:17:13.916Z,101234.31
2017-10-14T14:19:43.154Z,101235.92
2017-10-14T14:22:12.388Z,101237.16
2017-10-14T14:24:41.601Z,101236.17
2017-10-14T14:27:10.850Z,101225.62
2017-10-14T14:29:40.062Z,101227.98
2017-10-14T14:32:09.284Z,101233.15
2017-10-14T14:34:38.494Z,101229.23
2017-10-14T14:37:07.771Z,101220.09
2017-10-14T14:39:36.974Z,101213.20
2017-10-14T14:42:06.333Z,101212.93
2017-10-14T14:44:35.580Z,101211.50
2017-10-14T14:47:04.804Z,101214.19
2017-10-14T14:49:34.797Z,101217.20
2017-10-14T14:52:04.033Z,101217.99
2017-10-14T14:54:33.267Z,101213.74
2017-10-14T14:57:02.485Z,101218.05
2017-10-14T14:59:31.755Z,101208.72
2017-10-14T15:02:00.996Z,101204.74
2017-10-14T15:04:30.320Z,101209.69
2017-10-14T15:06:59.564Z,101205.94
2017-10-14T15:09:28.743Z,101200.73
2017-10-14T15:11:58.184Z,101200.11
2017-10-14T15:14:27.392Z,101203.23
2017-10-14T15:16:56.651Z,101216.66
2017-10-14T15:19:25.869Z,101225.70
2017-10-14T15:21:55.096Z,101227.20
2017-10-14T15:24:25.082Z,101221.62
2017-10-14T15:26:54.318Z,101230.25
2017-10-14T15:29:24.333Z,101225.89
2017-10-14T15:31:54.315Z,101225.62
2017-10-14T15:34:23.539Z,101229.16
2017-10-14T15:36:52.927Z,101230.54
2017-10-14T15:39:22.202Z,101229.95
2017-10-14T15:41:51.444Z,101236.44
2017-10-14T15:44:21.415Z,101230.22
2017-10-14T15:46:50.651Z,101233.38
2017-10-14T15:49:20.731Z,101239.84
2017-10-14T15:51:49.984Z,101237.78
2017-10-14T15:54:19.962Z,101239.44
2017-10-14T15:56:49.260Z,101237.13
2017-10-14T15:59:18.464Z,101241.58
2017-10-14T16:01:47.848Z,101239.48
2017-10-14T16:04:17.129Z,101242.32
2017-10-14T16:06:46.407Z,101242.81
2017-10-14T16:09:15.632Z,101239.31
2017-10-14T16:11:44.852Z,101239.43
2017-10-14T16:14:14.095Z,101242.69
2017-10-14T16:16:43.335Z,101251.33
2017-10-14T16:19:12.591Z,101254.28
2017-10-14T16:21:41.802Z,101259.04
2017-10-14T16:24:11.035Z,101260.11
2017-10-14T16:26:40.262Z,101257.56
2017-10-14T16:29:09.525Z,101260.25
2017-10-14T16:31:38.782Z,101253.84
2017-10-14T16:34:07.996Z,101260.23
2017-10-14T16:36:37.232Z,101261.88
2017-10-14T16:39:06.465Z,101267.45
2017-10-14T16:41:37.533Z,101266.98
2017-10-14T16:44:06.759Z,101267.63
2017-10-14T16:46:35.977Z,101267.20
2017-10-14T16:49:05.180Z,101271.71
2017-10-14T16:51:34.523Z,101269.38
2017-10-14T16:54:03.857Z,101266.18
2017-10-14T16:56:33.088Z,101264.98
2017-10-14T16:59:03.076Z,101268.22
2017-10-14T17:01:32.329Z,101269.61
2017-10-14T17:04:01.535Z,101263.65
2017-10-14T17:06:30.772Z,101265.51
2017-10-14T17:09:00.020Z,101259.89
2017-10-14T17:11:29.240Z,101266.21
2017-10-14T17:13:58.491Z,101262.01
2017-10-14T17:16:28.463Z,101267.67
2017-10-14T17:18:57.797Z,101264.84
2017-10-14T17:21:27.047Z,101260.74
2017-10-14T17:23:56.291Z,101266.95
2017-10-14T17:26:25.635Z,101272.10
2017-10-14T17:28:54.852Z,101278.41
2017-10-14T17:31:24.104Z,101280.16
2017-10-14T17:33:54.076Z,101279.21
2017-10-14T17:36:23.332Z,101288.60
2017-10-14T17:38:52.547Z,101293.45
2017-10-14T17:41:21.827Z,101292.64
2017-10-14T17:43:51.785Z,101289.47
2017-10-14T17:46:21.006Z,101284.56
2017-10-14T17:48:50.236Z,101279.15
2017-10-14T17:51:19.567Z,101279.51
2017-10-14T17:53:48.832Z,101284.44
2017-10-14T17:56:18.904Z,101281.21
2017-10-14T17:58:48.352Z,101283.28
2017-10-14T18:01:18.336Z,101285.48
2017-10-14T18:03:47.560Z,101286.68
2017-10-14T18:06:17.583Z,101282.46
2017-10-14T18:08:47.575Z,101283.88
2017-10-14T18:11:17.640Z,101276.12
2017-10-14T18:13:46.932Z,101281.69
2017-10-14T18:16:16.245Z,101289.96
2017-10-14T18:18:45.595Z,101288.16
2017-10-14T18:21:15.637Z,101287.08
2017-10-14T18:23:45.210Z,101288.99
2017-10-14T18:26:14.447Z,101290.98
2017-10-14T18:28:43.712Z,101288.92
2017-10-14T18:31:12.932Z,101279.91
2017-10-14T18:33:42.197Z,101287.72
2017-10-14T18:36:11.438Z,101279.88
2017-10-14T18:38:41.434Z,101285.20
2017-10-14T18:41:11.423Z,101283.20
2017-10-14T18:43:40.688Z,101291.09
2017-10-14T18:46:09.920Z,101295.50
2017-10-14T18:48:39.259Z,101299.31
2017-10-14T18:51:08.557Z,101299.23
2017-10-14T18:53:37.751Z,101299.49
2017-10-14T18:56:07.821Z,101301.19
2017-10-14T18:58:37.051Z,101300.11
2017-10-14T19:01:07.085Z,101298.22
2017-10-14T19:03:37.088Z,101297.64
2017-10-14T19:06:07.087Z,101300.74
2017-10-14T19:08:36.301Z,101313.20
2017-10-14T19:11:06.298Z,101304.52
2017-10-14T19:13:35.512Z,101308.55
2017-10-14T19:16:04.732Z,101306.42
2017-10-14T19:18:33.962Z,101311.17
2017-10-14T19:21:03.173Z,101308.45
2017-10-14T19:23:32.404Z,101312.33
2017-10-14T19:26:02.404Z,101309.43
2017-10-14T19:28:31.627Z,101314.23
2017-10-14T19:31:01.599Z,101307.58
2017-10-14T19:33:30.865Z,101308.33
2017-10-14T19:36:00.080Z,101317.28
2017-10-14T19:38:29.333Z,101309.42
2017-10-14T19:40:58.723Z,101311.94
2017-10-14T19:43:28.768Z,101312.56
2017-10-14T19:45:58.013Z,101318.01
2017-10-14T19:48:27.284Z,101313.12
2017-10-14T19:50:56.628Z,101318.78
2017-10-14T19:53:25.868Z,101318.73
2017-10-14T19:55:55.095Z,101320.05
2017-10-14T19:58:24.345Z,101319.91
2017-10-14T20:00:54.397Z,101319.09
2017-10-14T20:03:23.624Z,101318.03
2017-10-14T20:05:52.875Z,101319.61
2017-10-14T20:08:22.110Z,101312.23
2017-10-14T20:10:51.424Z,101324.70
2017-10-14T20:13:20.652Z,101323.07
2017-10-14T20:15:50.757Z,101318.95
2017-10-14T20:18:19.950Z,101319.84
2017-10-14T20:20:49.285Z,101316.34
2017-10-14T20:23:18.508Z,101317.02
2017-10-14T20:25:47.749Z,101329.94
2017-10-14T20:28:16.932Z,101329.81
2017-10-14T20:30:46.221Z,101328.23
2017-10-14T20:33:15.429Z,101332.59
2017-10-14T20:35:44.668Z,101333.13
2017-10-14T20:38:14.635Z,101322.38
2017-10-14T20:40:45.390Z,101325.55
2017-10-14T20:43:14.600Z,101322.20
2017-10-14T20:45:44.576Z,101317.47
2017-10-14T20:48:13.779Z,101319.38
2017-10-14T20:50:43.052Z,101308.41
2017-10-14T20:53:12.307Z,101318.76
2017-10-14T20:55:42.297Z,101319.22
2017-10-14T20:58:11.556Z,101320.42
2017-10-14T21:00:40.776Z,101312.69
2017-10-14T21:03:10.198Z,101322.81
2017-10-14T21:05:39.433Z,101317.27
2017-10-14T21:08:08.675Z,101316.63
2017-10-14T21:10:37.880Z,101315.43
2017-10-14T21:13:09.046Z,101315.16
2017-10-14T21:15:38.244Z,101314.20
2017-10-14T21:18:07.497Z,101303.98
2017-10-14T21:20:36.730Z,101305.45
2017-10-14T21:23:07.473Z,101297.53
2017-10-14T21:25:36.692Z,101302.30
2017-10-14T21:28:06.741Z,101291.91
2017-10-14T21:30:35.973Z,101282.14
2017-10-14T21:33:05.267Z,101279.47
2017-10-14T21:35:34.520Z,101273.52
2017-10-14T21:38:03.737Z,101267.13
2017-10-14T21:40:32.976Z,101269.12
2017-10-14T21:43:02.196Z,101268.70
2017-10-14T21:45:32.177Z,101265.73
2017-10-14T21:48:01.443Z,101267.80
2017-10-14T21:50:30.803Z,101261.14
2017-10-14T21:53:00.796Z,101261.66
2017-10-14T21:55:30.030Z,101261.24
2017-10-14T21:58:01.060Z,101260.73
2017-10-14T22:00:31.041Z,101258.80
2017-10-14T22:03:00.248Z,101256.86
2017-10-14T22:05:29.501Z,101262.58
2017-10-14T22:07:58.710Z,101253.38
2017-10-14T22:10:28.671Z,101247.72
2017-10-14T22:12:57.879Z,101245.55
2017-10-14T22:15:27.870Z,101239.48
2017-10-14T22:17:57.065Z,101242.63
2017-10-14T22:20:27.823Z,101244.51
2017-10-14T22:22:57.836Z,101244.45
2017-10-14T22:25:27.850Z,101247.14
2017-10-14T22:27:57.082Z,101235.54
2017-10-14T22:30:26.310Z,101238.52
2017-10-14T22:32:55.539Z,101236.83
2017-10-14T22:35:24.736Z,101237.77
2017-10-14T22:37:53.972Z,101241.06
2017-10-14T22:40:23.180Z,101237.45
2017-10-14T22:42:52.416Z,101224.71
2017-10-14T22:45:21.845Z,101230.20
2017-10-14T22:47:51.843Z,101232.80
2017-10-14T22:50:21.072Z,101227.53
2017-10-14T22:52:50.431Z,101229.77
2017-10-14T22:55:19.671Z,101230.78
2017-10-14T22:57:49.652Z,101229.36
2017-10-14T23:00:20.404Z,101223.30
2017-10-14T23:02:50.579Z,101225.36
2017-10-14T23:05:19.814Z,101230.09
2017-10-14T23:07:49.083Z,101221.81
2017-10-14T23:10:18.332Z,101228.73
2017-10-14T23:12:48.315Z,101228.01
2017-10-14T23:15:17.553Z,101228.98
2017-10-14T23:17:47.655Z,101218.90
2017-10-14T23:20:17.665Z,101215.58
2017-10-14T23:22:47.672Z,101220.50
2017-10-14T23:25:16.915Z,101217.86
2017-10-14T23:27:46.940Z,101225.27
2017-10-14T23:30:16.166Z,101221.91
2017-10-14T23:32:45.435Z,101227.24
2017-10-14T23:35:14.659Z,101225.31
2017-10-14T23:37:43.943Z,101225.96
2017-10-14T23:40:13.176Z,101219.61
2017-10-14T23:42:42.417Z,101208.94
2017-10-14T23:45:11.624Z,101216.09
2017-10-14T23:47:40.852Z,101211.55
2017-10-14T23:50:10.153Z,101206.92
2017-10-14T23:52:39.412Z,101205.91
2017-10-14T23:55:08.621Z,101215.30
2017-10-14T23:57:37.860Z,101212.41
